createdAt,value
2017-12-23T00:02:00.826Z,99.90
2017-12-23T00:04:30.876Z,99.90
2017-12-23T00:07:00.155Z,99.90
2017-12-23T00:09:29.405Z,99.90
2017-12-23T00:11:58.650Z,99.90
2017-12-23T00:14:28.729Z,99.90
2017-12-23T00:16:58.169Z,99.90
2017-12-23T00:19:27.461Z,99.90
2017-12-23T00:21:56.725Z,99.90
2017-12-23T00:24:26.349Z,99.90
2017-12-23T00:26:55.654Z,99.90
2017-12-23T00:29:26.404Z,99.90
2017-12-23T00:31:55.659Z,99.90
2017-12-23T00:34:31.667Z,99.90
2017-12-23T00:37:00.910Z,99.90
2017-12-23T00:39:30.379Z,99.90
2017-12-23T00:42:00.446Z,99.90
2017-12-23T00:44:29.710Z,99.90
2017-12-23T00:46:59.114Z,99.90
2017-12-23T00:49:28.394Z,99.90
2017-12-23T00:51:58.423Z,99.90
2017-12-23T00:54:27.686Z,99.90
2017-12-23T00:56:56.960Z,99.90
2017-12-23T00:59:26.206Z,99.90
2017-12-23T01:01:55.475Z,99.90
2017-12-23T01:04:25.300Z,99.90
2017-12-23T01:06:54.571Z,99.90
2017-12-23T01:09:23.815Z,99.90
2017-12-23T01:11:53.145Z,99.90
2017-12-23T01:14:23.250Z,99.90
2017-12-23T01:16:53.320Z,99.90
2017-12-23T01:19:22.577Z,99.90
2017-12-23T01:21:51.852Z,99.90
2017-12-23T01:24:21.160Z,99.90
2017-12-23T01:26:50.460Z,99.90
2017-12-23T01:29:19.685Z,99.90
2017-12-23T01:31:49.755Z,99.90
2017-12-23T01:34:19.014Z,99.90
2017-12-23T01:36:48.285Z,99.90
2017-12-23T01:39:17.559Z,99.90
2017-12-23T01:41:46.807Z,99.90
2017-12-23T01:44:16.145Z,99.90
2017-12-23T01:46:45.409Z,99.90
2017-12-23T01:49:15.517Z,99.90
2017-12-23T01:51:44.774Z,99.90
2017-12-23T01:54:14.073Z,99.90
2017-12-23T01:56:43.313Z,99.90
2017-12-23T01:59:12.737Z,99.90
2017-12-23T02:01:41.981Z,99.90
2017-12-23T02:04:11.359Z,99.90
2017-12-23T02:06:41.400Z,99.90
2017-12-23T02:09:11.085Z,99.90
2017-12-23T02:11:40.331Z,99.90
2017-12-23T02:14:09.740Z,99.90
2017-12-23T02:16:38.986Z,99.90
2017-12-23T02:19:08.248Z,99.90
2017-12-23T02:21:37.594Z,99.90
2017-12-23T02:24:06.992Z,99.90
2017-12-23T02:26:37.004Z,99.90
2017-12-23T02:29:06.613Z,99.90
2017-12-23T02:31:35.872Z,99.90
2017-12-23T02:34:05.238Z,99.90
2017-12-23T02:36:35.261Z,99.90
2017-12-23T02:39:04.696Z,99.90
2017-12-23T02:41:34.142Z,99.90
2017-12-23T02:44:03.649Z,99.90
2017-12-23T02:46:32.908Z,99.90
2017-12-23T02:49:02.168Z,99.90
2017-12-23T02:51:31.571Z,99.90
2017-12-23T02:54:01.692Z,99.90
2017-12-23T02:56:31.811Z,99.90
2017-12-23T02:59:01.119Z,99.90
2017-12-23T03:01:31.286Z,99.90
2017-12-23T03:04:00.570Z,99.90
2017-12-23T03:06:29.854Z,99.90
2017-12-23T03:08:59.327Z,99.90
2017-12-23T03:11:28.613Z,99.90
2017-12-23T03:13:57.925Z,99.90
2017-12-23T03:16:27.237Z,99.90
2017-12-23T03:18:56.452Z,99.90
2017-12-23T03:21:25.850Z,99.90
2017-12-23T03:23:55.250Z,99.90
2017-12-23T03:26:24.530Z,99.90
2017-12-23T03:28:53.780Z,99.90
2017-12-23T03:31:23.066Z,99.90
2017-12-23T03:33:52.367Z,99.90
2017-12-23T03:36:22.455Z,99.90
2017-12-23T03:38:51.758Z,99.90
2017-12-23T03:41:21.058Z,99.90
2017-12-23T03:43:50.309Z,99.90
2017-12-23T03:46:19.541Z,99.90
2017-12-23T03:48:48.790Z,99.90
2017-12-23T03:51:18.067Z,99.90
2017-12-23T03:53:48.168Z,99.90
2017-12-23T03:56:17.484Z,99.90
2017-12-23T03:58:46.747Z,99.90
2017-12-23T04:01:16.046Z,99.90
2017-12-23T04:03:45.307Z,99.90
2017-12-23T04:06:14.698Z,99.90
2017-12-23T04:08:44.090Z,99.90
2017-12-23T04:11:13.371Z,99.90
2017-12-23T04:13:42.662Z,99.90
2017-12-23T04:16:12.030Z,99.90
2017-12-23T04:18:41.927Z,99.90
2017-12-23T04:21:11.173Z,99.90
2017-12-23T04:23:40.447Z,99.90
2017-12-23T04:26:10.204Z,99.90
2017-12-23T04:28:39.523Z,99.90
2017-12-23T04:31:09.543Z,99.90
2017-12-23T04:33:39.557Z,99.90
2017-12-23T04:36:08.845Z,99.90
2017-12-23T04:38:39.608Z,99.90
2017-12-23T04:41:09.005Z,99.90
2017-12-23T04:43:39.194Z,99.90
2017-12-23T04:46:08.459Z,99.90
2017-12-23T04:48:37.710Z,99.90
2017-12-23T04:51:06.966Z,99.90
2017-12-23T04:53:36.268Z,99.90
2017-12-23T04:56:05.508Z,99.90
2017-12-23T04:58:34.784Z,99.90
2017-12-23T05:01:04.226Z,99.90
2017-12-23T05:03:34.880Z,99.90
2017-12-23T05:06:04.089Z,99.90
2017-12-23T05:08:33.326Z,99.90
2017-12-23T05:11:02.657Z,99.90
2017-12-23T05:13:32.712Z,99.90
2017-12-23T05:16:01.969Z,99.90
2017-12-23T05:18:31.302Z,99.90
2017-12-23T05:21:00.501Z,99.90
2017-12-23T05:23:29.799Z,99.90
2017-12-23T05:25:59.316Z,99.90
2017-12-23T05:28:28.570Z,99.90
2017-12-23T05:30:58.066Z,99.90
2017-12-23T05:33:27.318Z,99.90
2017-12-23T05:35:56.674Z,99.90
2017-12-23T05:38:25.929Z,99.90
2017-12-23T05:40:55.416Z,99.90
2017-12-23T05:43:24.649Z,99.90
2017-12-23T05:45:53.911Z,99.90
2017-12-23T05:48:23.957Z,99.90
2017-12-23T05:50:53.206Z,99.90
2017-12-23T05:53:22.438Z,99.90
2017-12-23T05:55:51.737Z,99.90
2017-12-23T05:58:21.022Z,99.90
2017-12-23T06:00:51.157Z,99.90
2017-12-23T06:03:20.408Z,99.90
2017-12-23T06:05:49.729Z,99.90
2017-12-23T06:08:19.055Z,99.90
2017-12-23T06:10:49.069Z,99.90
2017-12-23T06:13:18.313Z,99.90
2017-12-23T06:15:47.585Z,99.90
2017-12-23T06:18:17.533Z,99.90
2017-12-23T06:20:46.795Z,99.90
2017-12-23T06:23:16.872Z,99.90
2017-12-23T06:25:46.211Z,99.90
2017-12-23T06:28:16.293Z,99.90
2017-12-23T06:30:47.285Z,99.90
2017-12-23T06:33:16.541Z,99.90
2017-12-23T06:35:45.866Z,99.90
2017-12-23T06:38:15.265Z,99.90
2017-12-23T06:40:44.672Z,99.90
2017-12-23T06:43:14.712Z,99.90
2017-12-23T06:45:43.957Z,99.90
2017-12-23T06:48:13.204Z,99.90
2017-12-23T06:50:42.613Z,99.90
2017-12-23T06:53:11.862Z,99.90
2017-12-23T06:55:41.133Z,99.90
2017-12-23T06:58:10.375Z,99.90
2017-12-23T07:00:39.723Z,99.90
2017-12-23T07:03:09.045Z,99.90
2017-12-23T07:05:38.525Z,99.90
2017-12-23T07:08:07.774Z,99.90
2017-12-23T07:10:37.058Z,99.90
2017-12-23T07:13:06.418Z,99.90
2017-12-23T07:15:35.825Z,99.90
2017-12-23T07:18:05.139Z,99.90
2017-12-23T07:20:35.324Z,99.90
2017-12-23T07:23:04.653Z,99.90
2017-12-23T07:25:34.684Z,99.90
2017-12-23T07:28:04.179Z,99.90
2017-12-23T07:30:33.449Z,99.90
2017-12-23T07:33:02.879Z,99.90
2017-12-23T07:35:32.895Z,99.90
2017-12-23T07:38:02.303Z,99.90
2017-12-23T07:40:31.654Z,99.90
2017-12-23T07:43:01.069Z,99.90
2017-12-23T07:45:30.350Z,99.90
2017-12-23T07:47:59.689Z,99.90
2017-12-23T07:50:28.939Z,99.90
2017-12-23T07:52:58.236Z,99.90
2017-12-23T07:55:27.602Z,99.90
2017-12-23T07:57:56.882Z,99.90
2017-12-23T08:00:26.153Z,99.90
2017-12-23T08:02:55.521Z,99.90
2017-12-23T08:05:25.569Z,99.90
2017-12-23T08:07:54.833Z,99.90
2017-12-23T08:10:24.858Z,99.90
2017-12-23T08:12:54.897Z,99.90
2017-12-23T08:15:24.173Z,99.90
2017-12-23T08:17:53.504Z,99.90
2017-12-23T08:20:22.872Z,99.90
2017-12-23T08:22:53.191Z,99.90
2017-12-23T08:25:22.728Z,99.90
2017-12-23T08:27:52.226Z,99.90
2017-12-23T08:30:22.374Z,99.90
2017-12-23T08:32:51.854Z,99.90
2017-12-23T08:35:21.879Z,99.90
2017-12-23T08:37:51.284Z,99.90
2017-12-23T08:40:20.582Z,99.90
2017-12-23T08:42:50.674Z,99.90
2017-12-23T08:45:19.949Z,99.90
2017-12-23T08:47:49.209Z,99.90
2017-12-23T08:50:18.465Z,99.90
2017-12-23T08:52:47.741Z,99.90
2017-12-23T08:55:17.242Z,99.90
2017-12-23T08:57:47.237Z,99.90
2017-12-23T09:00:16.506Z,99.90
2017-12-23T09:02:45.931Z,99.90
2017-12-23T09:05:15.954Z,99.90
2017-12-23T09:07:45.215Z,99.90
2017-12-23T09:10:14.491Z,99.90
2017-12-23T09:12:43.761Z,99.90
2017-12-23T09:15:13.811Z,99.90
2017-12-23T09:17:43.275Z,99.90
2017-12-23T09:20:12.538Z,99.90
2017-12-23T09:22:41.805Z,99.90
2017-12-23T09:25:11.087Z,99.90
2017-12-23T09:27:41.074Z,99.90
2017-12-23T09:30:11.094Z,99.90
2017-12-23T09:32:40.383Z,99.90
2017-12-23T09:35:09.925Z,99.90
2017-12-23T09:37:39.965Z,99.90
2017-12-23T09:40:09.224Z,99.90
2017-12-23T09:42:38.582Z,99.90
2017-12-23T09:45:07.854Z,99.90
2017-12-23T09:47:37.153Z,99.90
2017-12-23T09:50:06.518Z,99.90
2017-12-23T09:52:35.844Z,99.90
2017-12-23T09:55:05.966Z,99.90
2017-12-23T09:57:35.359Z,99.90
2017-12-23T10:00:04.867Z,99.90
2017-12-23T10:02:34.903Z,99.90
2017-12-23T10:05:04.932Z,99.90
2017-12-23T10:07:34.275Z,99.90
2017-12-23T10:10:03.518Z,99.90
2017-12-23T10:12:32.789Z,99.90
2017-12-23T10:15:02.062Z,99.90
2017-12-23T10:17:31.322Z,99.90
2017-12-23T10:20:01.346Z,99.90
2017-12-23T10:22:30.634Z,99.90
2017-12-23T10:24:59.889Z,99.90
2017-12-23T10:27:29.137Z,99.90
2017-12-23T10:29:58.639Z,99.90
2017-12-23T10:32:28.730Z,99.90
2017-12-23T10:34:58.170Z,99.90
2017-12-23T10:37:28.221Z,99.90
2017-12-23T10:39:57.485Z,99.90
2017-12-23T10:42:27.489Z,99.90
2017-12-23T10:44:56.775Z,99.90
2017-12-23T10:47:26.086Z,99.90
2017-12-23T10:49:55.374Z,99.90
2017-12-23T10:52:24.740Z,99.90
2017-12-23T10:54:54.032Z,99.90
2017-12-23T10:57:24.052Z,99.90
2017-12-23T10:59:53.324Z,99.90
2017-12-23T11:02:22.627Z,99.90
2017-12-23T11:04:51.901Z,99.90
2017-12-23T11:07:21.193Z,99.90
2017-12-23T11:09:50.450Z,99.90
2017-12-23T11:12:20.542Z,99.90
2017-12-23T11:14:49.777Z,99.90
2017-12-23T11:17:19.057Z,99.90
2017-12-23T11:19:48.305Z,99.90
2017-12-23T11:22:18.445Z,99.90
2017-12-23T11:24:47.693Z,99.90
2017-12-23T11:27:17.081Z,99.90
2017-12-23T11:29:46.350Z,99.90
2017-12-23T11:32:15.620Z,99.90
2017-12-23T11:34:45.079Z,99.90
2017-12-23T11:37:15.075Z,99.90
2017-12-23T11:39:44.321Z,99.90
2017-12-23T11:42:13.591Z,99.90
2017-12-23T11:44:42.842Z,99.20
2017-12-23T11:47:12.145Z,99.20
2017-12-23T11:49:41.391Z,99.70
2017-12-23T11:52:10.802Z,99.40
2017-12-23T11:54:41.322Z,99.90
2017-12-23T11:57:10.604Z,99.90
2017-12-23T11:59:39.886Z,99.90
2017-12-23T12:02:09.134Z,99.60
2017-12-23T12:04:38.422Z,99.10
2017-12-23T12:07:07.716Z,99.30
2017-12-23T12:09:37.093Z,98.90
2017-12-23T12:12:06.793Z,99.80
2017-12-23T12:14:36.794Z,99.90
2017-12-23T12:17:06.274Z,99.30
2017-12-23T12:19:35.522Z,99.70
2017-12-23T12:22:04.877Z,99.90
2017-12-23T12:24:34.922Z,99.70
2017-12-23T12:27:04.172Z,99.70
2017-12-23T12:29:33.436Z,99.60
2017-12-23T12:32:02.691Z,99.30
2017-12-23T12:34:32.008Z,99.30
2017-12-23T12:37:02.025Z,98.90
2017-12-23T12:39:31.301Z,98.90
2017-12-23T12:42:01.407Z,98.70
2017-12-23T12:44:30.680Z,98.70
2017-12-23T12:46:59.950Z,97.80
2017-12-23T12:49:30.076Z,98.30
2017-12-23T12:52:00.199Z,98.50
2017-12-23T12:54:30.485Z,97.70
2017-12-23T12:56:59.742Z,97.70
2017-12-23T12:59:29.025Z,97.90
2017-12-23T13:01:58.328Z,98.20
2017-12-23T13:04:27.592Z,98.70
2017-12-23T13:06:56.851Z,98.00
2017-12-23T13:09:26.108Z,98.30
2017-12-23T13:11:55.434Z,99.30
2017-12-23T13:14:25.444Z,99.40
2017-12-23T13:16:54.699Z,99.60
2017-12-23T13:19:24.126Z,98.90
2017-12-23T13:21:53.488Z,99.70
2017-12-23T13:24:22.744Z,99.20
2017-12-23T13:26:52.802Z,99.50
2017-12-23T13:29:22.075Z,99.50
2017-12-23T13:31:51.521Z,99.10
2017-12-23T13:34:20.782Z,99.20
2017-12-23T13:36:50.893Z,99.60
2017-12-23T13:39:20.287Z,99.60
2017-12-23T13:41:49.702Z,99.20
2017-12-23T13:44:19.768Z,98.70
2017-12-23T13:46:49.334Z,98.70
2017-12-23T13:49:19.351Z,98.80
2017-12-23T13:51:48.612Z,98.80
2017-12-23T13:54:17.883Z,99.10
2017-12-23T13:56:47.161Z,98.70
2017-12-23T13:59:17.198Z,98.80
2017-12-23T14:01:46.566Z,98.80
2017-12-23T14:04:15.822Z,98.80
2017-12-23T14:06:45.174Z,98.90
2017-12-23T14:09:15.200Z,99.50
2017-12-23T14:11:44.470Z,99.50
2017-12-23T14:14:13.819Z,98.50
2017-12-23T14:16:43.083Z,98.40
2017-12-23T14:19:13.125Z,98.80
2017-12-23T14:21:42.418Z,98.80
2017-12-23T14:24:13.338Z,99.90
2017-12-23T14:26:42.626Z,99.90
2017-12-23T14:29:11.881Z,99.80
2017-12-23T14:31:41.330Z,99.70
2017-12-23T14:34:11.371Z,99.10
2017-12-23T14:36:41.399Z,99.90
2017-12-23T14:39:10.684Z,99.90
2017-12-23T14:41:39.929Z,99.90
2017-12-23T14:44:09.302Z,99.90
2017-12-23T14:46:38.558Z,99.30
2017-12-23T14:49:08.006Z,99.90
2017-12-23T14:51:38.039Z,99.90
2017-12-23T14:54:07.298Z,99.90
2017-12-23T14:56:36.702Z,99.90
2017-12-23T14:59:06.121Z,99.90
2017-12-23T15:01:35.651Z,99.90
2017-12-23T15:04:04.922Z,99.90
2017-12-23T15:06:34.174Z,99.90
2017-12-23T15:09:03.425Z,99.90
2017-12-23T15:11:32.777Z,99.90
2017-12-23T15:14:02.094Z,99.90
2017-12-23T15:16:31.388Z,99.90
2017-12-23T15:19:00.852Z,99.90
2017-12-23T15:21:32.266Z,99.90
2017-12-23T15:24:01.612Z,99.90
2017-12-23T15:26:30.869Z,99.90
2017-12-23T15:29:00.146Z,99.90
2017-12-23T15:31:29.420Z,99.90
2017-12-23T15:33:59.384Z,99.90
2017-12-23T15:36:28.741Z,99.90
2017-12-23T15:38:58.006Z,99.90
2017-12-23T15:41:27.422Z,99.90
2017-12-23T15:43:56.738Z,99.90
2017-12-23T15:46:26.760Z,99.90
2017-12-23T15:48:56.046Z,99.90
2017-12-23T15:51:25.332Z,99.90
2017-12-23T15:53:54.590Z,99.90
2017-12-23T15:56:23.883Z,99.90
2017-12-23T15:58:53.139Z,99.90
2017-12-23T16:01:23.149Z,99.90
2017-12-23T16:03:52.399Z,99.90
2017-12-23T16:06:21.687Z,99.90
2017-12-23T16:08:51.722Z,99.90
2017-12-23T16:11:21.506Z,99.90
2017-12-23T16:13:51.018Z,99.90
2017-12-23T16:16:21.071Z,99.90
2017-12-23T16:18:50.349Z,99.90
2017-12-23T16:21:19.654Z,99.90
2017-12-23T16:23:49.050Z,99.90
2017-12-23T16:26:19.114Z,99.90
2017-12-23T16:28:48.340Z,99.90
2017-12-23T16:31:18.376Z,99.90
2017-12-23T16:33:48.400Z,99.90
2017-12-23T16:36:17.790Z,99.90
2017-12-23T16:38:47.808Z,99.90
2017-12-23T16:41:17.053Z,99.90
2017-12-23T16:43:46.333Z,99.90
2017-12-23T16:46:16.486Z,99.90
2017-12-23T16:48:45.747Z,99.90
2017-12-23T16:51:15.846Z,99.90
2017-12-23T16:53:45.190Z,99.90
2017-12-23T16:56:14.479Z,99.90
2017-12-23T16:58:43.725Z,99.90
2017-12-23T17:01:13.253Z,99.90
2017-12-23T17:03:42.573Z,99.90
2017-12-23T17:06:11.996Z,99.90
2017-12-23T17:08:41.469Z,99.90
2017-12-23T17:11:10.747Z,99.90
2017-12-23T17:13:40.031Z,99.90
2017-12-23T17:16:09.270Z,99.90
2017-12-23T17:18:39.281Z,99.90
2017-12-23T17:21:08.557Z,99.90
2017-12-23T17:23:37.794Z,99.90
2017-12-23T17:26:07.876Z,99.90
2017-12-23T17:28:55.323Z,99.90
2017-12-23T17:31:24.750Z,99.90
2017-12-23T17:33:54.125Z,99.90
2017-12-23T17:36:23.434Z,99.90
2017-12-23T17:38:52.674Z,99.90
2017-12-23T17:41:22.637Z,99.90
2017-12-23T17:43:52.195Z,99.90
2017-12-23T17:46:21.579Z,99.90
2017-12-23T17:48:51.701Z,99.90
2017-12-23T17:51:22.031Z,99.90
2017-12-23T17:53:52.174Z,99.90
2017-12-23T17:56:21.533Z,99.90
2017-12-23T17:58:51.611Z,99.90
2017-12-23T18:01:20.996Z,99.90
2017-12-23T18:03:50.242Z,99.90
2017-12-23T18:06:19.506Z,99.90
2017-12-23T18:08:48.754Z,99.90
2017-12-23T18:11:18.086Z,99.90
2017-12-23T18:13:47.402Z,99.90
2017-12-23T18:16:16.735Z,99.90
2017-12-23T18:18:45.965Z,99.90
2017-12-23T18:21:15.279Z,99.90
2017-12-23T18:23:45.398Z,99.90
2017-12-23T18:26:14.724Z,99.90
2017-12-23T18:28:44.730Z,99.90
2017-12-23T18:31:14.454Z,99.90
2017-12-23T18:33:43.689Z,99.90
2017-12-23T18:36:13.046Z,99.90
2017-12-23T18:38:42.305Z,99.90
2017-12-23T18:41:11.585Z,99.90
2017-12-23T18:43:40.997Z,99.90
2017-12-23T18:46:11.015Z,99.90
2017-12-23T18:48:40.282Z,99.90
2017-12-23T18:51:09.614Z,99.90
2017-12-23T18:53:38.871Z,99.90
2017-12-23T18:56:08.375Z,99.90
2017-12-23T18:58:37.617Z,99.90
2017-12-23T19:01:07.635Z,99.90
2017-12-23T19:03:37.022Z,99.90
2017-12-23T19:06:06.273Z,99.90
2017-12-23T19:08:35.505Z,99.90
2017-12-23T19:11:04.791Z,99.90
2017-12-23T19:13:34.046Z,99.90
2017-12-23T19:16:04.081Z,99.90
2017-12-23T19:18:33.326Z,99.90
2017-12-23T19:21:02.660Z,99.90
2017-12-23T19:23:31.907Z,99.90
2017-12-23T19:26:01.174Z,99.90
2017-12-23T19:28:30.459Z,99.90
2017-12-23T19:30:59.688Z,99.90
2017-12-23T19:33:29.641Z,99.90
2017-12-23T19:35:58.889Z,99.90
2017-12-23T19:38:28.162Z,99.90
2017-12-23T19:40:57.705Z,99.90
2017-12-23T19:43:27.003Z,99.90
2017-12-23T19:45:57.725Z,99.90
2017-12-23T19:48:26.994Z,99.90
2017-12-23T19:50:56.286Z,99.90
2017-12-23T19:53:25.530Z,99.90
2017-12-23T19:55:55.629Z,99.90
2017-12-23T19:58:25.270Z,99.90
2017-12-23T20:00:54.520Z,99.90
2017-12-23T20:03:23.820Z,99.90
2017-12-23T20:05:53.089Z,99.90
2017-12-23T20:08:22.429Z,99.90
2017-12-23T20:10:51.734Z,99.90
2017-12-23T20:13:21.002Z,99.90
2017-12-23T20:15:50.454Z,99.90
2017-12-23T20:18:19.758Z,99.90
2017-12-23T20:20:49.017Z,99.90
2017-12-23T20:23:18.289Z,99.90
2017-12-23T20:25:47.582Z,99.90
2017-12-23T20:28:17.643Z,99.90
2017-12-23T20:30:46.883Z,99.90
2017-12-23T20:33:16.927Z,99.90
2017-12-23T20:35:46.177Z,99.90
2017-12-23T20:38:15.443Z,99.90
2017-12-23T20:40:44.708Z,99.90
2017-12-23T20:43:14.724Z,99.90
2017-12-23T20:45:43.996Z,99.90
2017-12-23T20:48:13.243Z,99.90
2017-12-23T20:50:42.838Z,99.90
2017-12-23T20:53:12.099Z,99.90
2017-12-23T20:55:41.359Z,99.90
2017-12-23T20:58:10.814Z,99.90
2017-12-23T21:00:40.030Z,99.90
2017-12-23T21:03:09.309Z,99.90
2017-12-23T21:05:38.649Z,99.90
2017-12-23T21:08:08.158Z,99.90
2017-12-23T21:10:38.877Z,99.90
2017-12-23T21:13:08.171Z,99.90
2017-12-23T21:15:38.933Z,99.90
2017-12-23T21:18:08.342Z,99.90
2017-12-23T21:20:37.594Z,99.90
2017-12-23T21:23:06.932Z,99.90
2017-12-23T21:25:37.575Z,99.90
2017-12-23T21:28:06.865Z,99.90
2017-12-23T21:30:36.183Z,99.90
2017-12-23T21:33:05.679Z,99.90
2017-12-23T21:35:35.717Z,99.90
2017-12-23T21:38:04.986Z,99.90
2017-12-23T21:40:34.235Z,99.90
2017-12-23T21:43:03.498Z,99.90
2017-12-23T21:45:33.560Z,99.90
2017-12-23T21:48:02.807Z,99.90
2017-12-23T21:50:32.842Z,99.90
2017-12-23T21:53:02.698Z,99.90
2017-12-23T21:55:31.997Z,99.90
2017-12-23T21:58:01.240Z,99.90
2017-12-23T22:00:30.494Z,99.90
2017-12-23T22:02:59.801Z,99.90
2017-12-23T22:05:29.077Z,99.90
2017-12-23T22:07:58.522Z,99.90
2017-12-23T22:10:27.884Z,99.90
2017-12-23T22:12:57.159Z,99.90
2017-12-23T22:15:27.175Z,99.90
2017-12-23T22:17:57.212Z,99.90
2017-12-23T22:20:26.509Z,99.90
2017-12-23T22:22:56.515Z,99.90
2017-12-23T22:25:25.766Z,99.90
2017-12-23T22:27:55.240Z,99.90
2017-12-23T22:30:24.475Z,99.80
2017-12-23T22:32:53.733Z,99.90
2017-12-23T22:35:23.114Z,99.90
2017-12-23T22:37:53.964Z,99.90
2017-12-23T22:40:23.988Z,99.90
2017-12-23T22:42:54.021Z,99.90
2017-12-23T22:45:23.315Z,99.90
2017-12-23T22:47:52.550Z,99.90
2017-12-23T22:50:21.914Z,99.90
2017-12-23T22:52:51.811Z,99.90
2017-12-23T22:55:21.166Z,99.90
2017-12-23T22:57:50.567Z,99.90
2017-12-23T23:00:19.855Z,99.90
2017-12-23T23:02:49.449Z,99.90
2017-12-23T23:05:18.748Z,99.90
2017-12-23T23:07:48.000Z,99.90
2017-12-23T23:10:17.440Z,99.90
2017-12-23T23:12:46.693Z,99.70
2017-12-23T23:15:15.958Z,99.90
2017-12-23T23:17:45.206Z,99.90
2017-12-23T23:20:14.639Z,99.80
2017-12-23T23:22:44.776Z,99.70
2017-12-23T23:25:14.885Z,99.90
2017-12-23T23:27:45.016Z,99.90
2017-12-23T23:30:15.123Z,99.90
2017-12-23T23:32:44.434Z,99.90
2017-12-23T23:35:13.669Z,99.90
2017-12-23T23:37:42.922Z,99.80
2017-12-23T23:40:12.341Z,99.70
2017-12-23T23:42:42.418Z,99.60
2017-12-23T23:45:11.650Z,99.50
2017-12-23T23:47:40.919Z,99.80
2017-12-23T23:50:10.187Z,99.50
2017-12-23T23:52:39.429Z,99.90
2017-12-23T23:55:08.770Z,99.90
2017-12-23T23:57:38.018Z,99.90
